Time;durP1;ratioP1;P1;durP2;ratioP2;P2;SDS_P1;SDS_P2;PMS_P1;PMS_P2;Temp;Humidity;BMP_temperature;BMP_pressure;BME280_temperature;BME280_humidity;BME280_pressure;Samples;Min_cycle;Max_cycle;Signal;HPM_P1;HPM_P2
2021/07/13 00:01:04;;;;;;;7.53;3.10;;;17.30;86.30;;;;;;5055907;28;20051;-75
2021/07/13 00:03:30;;;;;;;4.70;2.55;;;17.30;86.30;;;;;;5055789;28;20028;-76
2021/07/13 00:05:57;;;;;;;3.78;2.60;;;17.30;86.30;;;;;;5055721;28;20021;-76
2021/07/13 00:08:22;;;;;;;3.65;2.83;;;17.30;86.70;;;;;;5055833;28;20017;-75
2021/07/13 00:10:48;;;;;;;4.80;2.78;;;17.20;86.70;;;;;;5055888;28;20103;-75
2021/07/13 00:13:14;;;;;;;4.55;2.88;;;17.20;87.00;;;;;;5055736;28;20103;-76
2021/07/13 00:15:42;;;;;;;5.22;3.20;;;17.10;87.60;;;;;;5055891;28;20029;-75
2021/07/13 00:18:09;;;;;;;8.15;4.05;;;17.10;88.20;;;;;;5055522;28;20017;-75
2021/07/13 00:20:35;;;;;;;4.93;3.38;;;17.20;88.00;;;;;;5044513;28;20036;-77
2021/07/13 00:23:02;;;;;;;6.32;3.70;;;17.20;87.60;;;;;;5035695;28;20025;-77
2021/07/13 00:25:28;;;;;;;7.18;3.75;;;17.30;87.50;;;;;;5035401;28;20056;-76
2021/07/13 00:27:55;;;;;;;6.80;4.00;;;17.10;88.20;;;;;;5035286;28;20029;-76
2021/07/13 00:30:23;;;;;;;7.28;4.10;;;17.20;88.40;;;;;;5035306;28;20034;-75
2021/07/13 00:32:49;;;;;;;6.72;4.18;;;17.10;88.40;;;;;;5035371;28;20470;-77
2021/07/13 00:35:16;;;;;;;5.65;3.53;;;17.10;88.50;;;;;;5035387;28;20026;-77
2021/07/13 00:37:42;;;;;;;6.82;3.63;;;17.10;88.60;;;;;;5035729;28;20024;-76
2021/07/13 00:40:11;;;;;;;7.80;3.80;;;17.00;88.90;;;;;;5035193;28;20025;-76
2021/07/13 00:42:37;;;;;;;5.25;3.50;;;17.00;88.70;;;;;;5035025;28;20021;-77
2021/07/13 00:45:05;;;;;;;4.82;3.50;;;17.00;88.90;;;;;;5035241;28;20025;-74
2021/07/13 00:47:31;;;;;;;4.57;3.40;;;17.10;88.80;;;;;;5035078;28;20021;-76
2021/07/13 00:49:59;;;;;;;6.90;3.17;;;17.10;88.60;;;;;;5035108;28;20025;-75
2021/07/13 00:52:25;;;;;;;5.32;3.08;;;17.10;88.40;;;;;;5034758;28;20025;-75
2021/07/13 00:54:52;;;;;;;6.13;3.28;;;17.10;88.60;;;;;;5034752;28;20076;-76
2021/07/13 00:57:19;;;;;;;5.50;3.20;;;17.10;88.70;;;;;;5034970;28;20063;-76
2021/07/13 00:59:46;;;;;;;6.70;3.40;;;17.00;88.80;;;;;;5034944;28;20025;-76
2021/07/13 01:02:14;;;;;;;6.60;3.22;;;17.00;88.90;;;;;;5034837;28;20025;-77
2021/07/13 01:04:44;;;;;;;4.15;3.30;;;17.10;88.60;;;;;;5034591;28;20061;-75
2021/07/13 01:07:24;;;;;;;5.88;3.75;;;17.10;88.30;;;;;;5034501;28;20030;-76
2021/07/13 01:10:00;;;;;;;6.95;3.60;;;17.00;88.30;;;;;;5034568;28;20053;-76
2021/07/13 01:12:58;;;;;;;7.70;3.53;;;17.00;88.40;;;;;;5034572;28;20055;-76
2021/07/13 01:15:28;;;;;;;5.90;3.00;;;17.10;88.30;;;;;;5034833;28;20175;-75
2021/07/13 01:18:00;;;;;;;4.93;2.80;;;17.00;88.50;;;;;;5034558;28;20452;-75
2021/07/13 01:20:37;;;;;;;4.45;2.92;;;16.90;88.60;;;;;;5043986;28;20032;-76
2021/07/13 01:23:27;;;;;;;4.47;3.00;;;16.90;89.00;;;;;;5054567;28;20052;-75
2021/07/13 01:26:26;;;;;;;5.97;2.83;;;16.90;88.80;;;;;;5054434;28;20556;-76
2021/07/13 01:29:01;;;;;;;5.60;2.67;;;17.00;88.60;;;;;;5054110;28;20021;-76
2021/07/13 01:31:27;;;;;;;3.42;2.60;;;17.00;88.70;;;;;;5053922;28;20037;-76
2021/07/13 01:33:59;;;;;;;4.93;2.75;;;17.00;88.30;;;;;;5054491;28;20067;-77
2021/07/13 01:36:32;;;;;;;4.32;2.67;;;17.10;88.50;;;;;;5054252;28;20082;-75
2021/07/13 01:38:59;;;;;;;5.05;2.53;;;17.10;88.40;;;;;;5054243;28;20050;-76
2021/07/13 01:41:28;;;;;;;5.80;2.67;;;17.10;89.20;;;;;;5054021;28;20021;-78
2021/07/13 01:43:56;;;;;;;5.03;2.60;;;17.10;89.00;;;;;;5053667;28;20025;-75
2021/07/13 01:46:22;;;;;;;3.85;2.65;;;17.00;89.30;;;;;;5053924;28;20358;-75
2021/07/13 01:48:50;;;;;;;5.47;2.80;;;16.90;89.80;;;;;;5053949;28;20021;-77
2021/07/13 01:51:18;;;;;;;5.65;2.45;;;16.90;90.00;;;;;;5053664;28;20048;-74
2021/07/13 01:53:45;;;;;;;3.80;2.50;;;16.80;90.00;;;;;;5053781;28;20021;-76
2021/07/13 01:56:11;;;;;;;5.90;2.72;;;16.80;89.90;;;;;;5053784;28;20021;-75
2021/07/13 01:58:38;;;;;;;5.10;3.03;;;16.80;90.20;;;;;;5053916;28;20071;-77
2021/07/13 02:01:18;;;;;;;6.25;3.10;;;16.90;90.00;;;;;;5053672;28;20021;-77
2021/07/13 02:03:45;;;;;;;3.70;2.85;;;16.70;90.40;;;;;;5035617;28;20079;-76
2021/07/13 02:06:14;;;;;;;4.90;2.88;;;16.80;90.60;;;;;;5053534;28;20056;-76
2021/07/13 02:08:41;;;;;;;5.32;3.17;;;16.90;90.50;;;;;;5053599;28;20029;-77
2021/07/13 02:11:08;;;;;;;5.40;2.78;;;16.80;90.80;;;;;;5053571;28;20017;-77
2021/07/13 02:13:34;;;;;;;6.45;3.00;;;16.70;91.10;;;;;;5053469;28;20412;-75
2021/07/13 02:16:00;;;;;;;7.50;2.97;;;16.70;91.20;;;;;;5053305;28;20021;-76
2021/07/13 02:18:27;;;;;;;4.47;2.75;;;16.70;91.10;;;;;;5053275;28;20433;-76
2021/07/13 02:20:53;;;;;;;4.03;2.85;;;16.70;91.20;;;;;;5039240;28;20505;-76
2021/07/13 02:23:19;;;;;;;3.72;2.85;;;16.70;91.20;;;;;;5033563;28;20037;-78
2021/07/13 02:25:48;;;;;;;6.05;3.30;;;16.80;91.00;;;;;;5033339;28;20046;-77
2021/07/13 02:28:35;;;;;;;4.30;3.13;;;16.70;91.00;;;;;;5033120;28;20037;-77
2021/07/13 02:31:15;;;;;;;6.20;3.40;;;16.70;91.20;;;;;;5015303;28;20029;-76
2021/07/13 02:33:49;;;;;;;4.85;2.65;;;16.70;91.30;;;;;;5033410;28;20397;-76
2021/07/13 02:36:20;;;;;;;3.60;2.90;;;16.60;91.20;;;;;;5033295;28;20035;-75
2021/07/13 02:38:47;;;;;;;4.45;2.75;;;16.60;91.30;;;;;;5033216;28;20080;-76
2021/07/13 02:41:18;;;;;;;4.18;2.70;;;16.70;91.30;;;;;;5033229;28;20017;-76
2021/07/13 02:43:46;;;;;;;5.88;2.85;;;16.70;91.20;;;;;;5032854;28;20028;-75
2021/07/13 02:46:13;;;;;;;5.40;2.95;;;16.70;91.10;;;;;;5033161;28;20018;-76
2021/07/13 02:48:40;;;;;;;6.00;3.20;;;16.80;91.30;;;;;;5033120;28;20017;-75
2021/07/13 02:51:09;;;;;;;3.35;2.63;;;16.80;91.10;;;;;;5033045;28;20017;-77
2021/07/13 02:53:36;;;;;;;4.82;3.33;;;16.70;91.30;;;;;;5033010;28;20105;-77
2021/07/13 02:56:03;;;;;;;4.78;3.17;;;16.60;91.50;;;;;;5033041;28;20105;-75
2021/07/13 02:58:29;;;;;;;4.25;3.00;;;16.60;91.50;;;;;;5033095;28;20036;-76
2021/07/13 03:00:57;;;;;;;5.38;3.40;;;16.60;91.60;;;;;;5033021;28;20028;-75
2021/07/13 03:03:23;;;;;;;5.13;3.35;;;16.50;91.80;;;;;;5033015;28;20100;-75
2021/07/13 03:05:52;;;;;;;4.90;3.25;;;16.40;91.90;;;;;;5032866;28;20090;-76
2021/07/13 03:08:20;;;;;;;5.47;3.75;;;16.50;91.80;;;;;;5032925;28;20379;-77
2021/07/13 03:10:47;;;;;;;5.10;3.83;;;16.50;91.80;;;;;;5032959;28;20057;-75
2021/07/13 03:13:13;;;;;;;6.50;3.72;;;16.60;91.90;;;;;;5032862;28;20398;-74
2021/07/13 03:15:41;;;;;;;6.40;3.70;;;16.50;92.00;;;;;;5032729;28;20033;-75
2021/07/13 03:18:08;;;;;;;8.30;3.80;;;16.60;91.90;;;;;;5032700;28;20108;-75
2021/07/13 03:20:34;;;;;;;7.05;3.83;;;16.60;91.90;;;;;;5043300;28;20111;-75
2021/07/13 03:23:01;;;;;;;4.38;3.28;;;16.50;92.00;;;;;;5053302;28;20021;-75
2021/07/13 03:25:34;;;;;;;5.70;4.07;;;16.40;92.30;;;;;;5052560;28;20060;-74
2021/07/13 03:28:02;;;;;;;5.15;3.30;;;16.50;92.30;;;;;;5052549;28;20053;-76
2021/07/13 03:30:29;;;;;;;5.38;3.78;;;16.60;92.20;;;;;;5052627;28;20025;-75
2021/07/13 03:32:56;;;;;;;4.80;3.60;;;16.60;92.20;;;;;;5055959;28;20032;-76
2021/07/13 03:35:23;;;;;;;6.55;3.55;;;16.50;92.30;;;;;;5056517;28;20025;-75
2021/07/13 03:37:50;;;;;;;7.22;3.67;;;16.60;92.40;;;;;;5056438;28;20017;-76
2021/07/13 03:40:17;;;;;;;6.88;4.40;;;16.60;92.30;;;;;;5056047;28;20025;-75
2021/07/13 03:42:45;;;;;;;7.78;4.32;;;16.50;92.40;;;;;;5056109;28;20017;-76
2021/07/13 03:45:15;;;;;;;4.57;3.47;;;16.60;92.50;;;;;;5056419;28;20103;-75
2021/07/13 03:47:47;;;;;;;8.48;4.55;;;16.50;92.50;;;;;;5056287;28;20017;-75
2021/07/13 03:50:14;;;;;;;6.45;4.03;;;16.60;92.40;;;;;;5056362;28;20029;-75
2021/07/13 03:52:41;;;;;;;5.82;3.78;;;16.60;92.30;;;;;;5055811;28;20370;-75
2021/07/13 03:55:06;;;;;;;6.32;3.45;;;16.70;92.40;;;;;;5055873;28;20032;-74
2021/07/13 03:57:32;;;;;;;6.35;3.92;;;16.70;92.50;;;;;;5056115;28;20423;-75
2021/07/13 03:59:58;;;;;;;5.63;4.00;;;16.70;92.50;;;;;;5056052;28;20032;-76
2021/07/13 04:02:23;;;;;;;5.35;4.05;;;16.70;92.80;;;;;;5056079;28;20033;-75
2021/07/13 04:04:49;;;;;;;6.93;4.45;;;16.80;93.00;;;;;;5055662;28;20523;-77
2021/07/13 04:07:14;;;;;;;6.57;4.45;;;16.70;93.30;;;;;;5055764;28;20023;-75
2021/07/13 04:09:41;;;;;;;8.95;4.20;;;16.70;93.40;;;;;;5055846;28;20109;-76
2021/07/13 04:12:06;;;;;;;7.32;4.63;;;16.70;93.50;;;;;;5055753;28;20021;-76
2021/07/13 04:14:34;;;;;;;7.93;4.82;;;16.80;93.40;;;;;;5055787;28;20074;-76
2021/07/13 04:17:00;;;;;;;8.77;5.70;;;16.80;93.30;;;;;;5055700;28;20021;-77
2021/07/13 04:19:25;;;;;;;7.10;4.40;;;16.80;93.30;;;;;;5054033;28;20562;-77
2021/07/13 04:21:51;;;;;;;7.03;4.68;;;16.80;93.30;;;;;;5035667;28;20101;-77
2021/07/13 04:24:17;;;;;;;7.15;5.30;;;16.80;93.30;;;;;;5035583;28;20033;-76
2021/07/13 04:26:42;;;;;;;8.27;4.85;;;16.80;93.50;;;;;;5035127;28;20171;-77
2021/07/13 04:29:08;;;;;;;7.20;4.70;;;16.70;93.70;;;;;;5035535;28;20025;-77
2021/07/13 04:31:34;;;;;;;7.57;4.55;;;16.70;94.00;;;;;;5035214;28;20037;-75
2021/07/13 04:34:07;;;;;;;6.65;4.68;;;16.80;93.80;;;;;;5035518;28;20092;-76
2021/07/13 04:36:33;;;;;;;7.15;4.75;;;16.80;93.90;;;;;;5035461;28;20021;-75
2021/07/13 04:38:59;;;;;;;8.48;5.25;;;16.80;94.00;;;;;;5035219;28;20048;-75
2021/07/13 04:41:24;;;;;;;10.90;5.45;;;16.80;94.20;;;;;;5035348;28;20060;-76
2021/07/13 04:43:50;;;;;;;8.15;4.88;;;16.80;94.20;;;;;;5034246;28;20026;-77
2021/07/13 04:46:16;;;;;;;7.25;4.45;;;16.90;94.30;;;;;;5035295;28;20516;-77
2021/07/13 04:48:41;;;;;;;7.32;4.45;;;16.90;94.30;;;;;;5035180;28;20057;-76
2021/07/13 04:51:07;;;;;;;10.40;5.18;;;16.90;94.20;;;;;;5035012;28;20021;-75
2021/07/13 04:53:34;;;;;;;8.43;4.63;;;16.90;94.20;;;;;;5034941;28;20437;-77
2021/07/13 04:55:59;;;;;;;6.53;3.88;;;16.90;94.00;;;;;;5017197;28;20022;-76
2021/07/13 04:58:25;;;;;;;8.65;4.57;;;16.90;94.20;;;;;;5034965;28;20021;-77
2021/07/13 05:00:51;;;;;;;8.70;4.63;;;16.90;94.50;;;;;;5034899;28;20025;-77
2021/07/13 05:03:16;;;;;;;7.95;4.15;;;16.80;94.60;;;;;;5034792;28;20037;-76
2021/07/13 05:05:42;;;;;;;11.48;4.60;;;16.80;94.60;;;;;;5034798;28;20032;-77
2021/07/13 05:08:07;;;;;;;7.63;3.58;;;16.80;94.60;;;;;;5034742;28;20033;-75
2021/07/13 05:10:33;;;;;;;9.13;4.43;;;16.70;94.60;;;;;;5034774;28;20386;-75
2021/07/13 05:12:59;;;;;;;10.93;4.75;;;16.80;94.50;;;;;;5034612;28;20032;-75
2021/07/13 05:15:25;;;;;;;7.35;3.70;;;16.80;94.50;;;;;;5034465;28;20367;-75
2021/07/13 05:17:50;;;;;;;9.43;3.90;;;16.80;94.60;;;;;;5034500;28;20029;-76
2021/07/13 05:20:16;;;;;;;6.35;4.00;;;16.80;94.40;;;;;;5042617;28;20017;-75
2021/07/13 05:22:44;;;;;;;9.27;3.55;;;16.80;94.50;;;;;;5054542;28;20104;-76
2021/07/13 05:25:11;;;;;;;8.05;4.10;;;16.80;94.40;;;;;;5054261;28;20041;-77
2021/07/13 05:27:39;;;;;;;8.38;3.80;;;16.80;94.10;;;;;;5054185;28;20029;-75
2021/07/13 05:30:07;;;;;;;8.75;3.30;;;16.80;94.20;;;;;;5054181;28;20037;-75
2021/07/13 05:32:32;;;;;;;6.55;3.55;;;16.80;94.00;;;;;;5054196;28;20025;-75
2021/07/13 05:34:58;;;;;;;6.53;3.50;;;16.80;94.10;;;;;;5054315;28;20021;-75
2021/07/13 05:37:24;;;;;;;8.68;4.13;;;16.80;93.90;;;;;;5054220;28;20108;-75
2021/07/13 05:39:49;;;;;;;9.52;3.33;;;16.90;93.90;;;;;;5036062;28;20025;-75
2021/07/13 05:42:16;;;;;;;4.78;2.90;;;16.90;93.80;;;;;;5053950;28;20021;-76
2021/07/13 05:44:42;;;;;;;7.03;3.30;;;16.90;93.80;;;;;;5054138;28;20028;-75
2021/07/13 05:47:07;;;;;;;6.13;3.15;;;16.90;93.70;;;;;;5054065;28;20391;-76
2021/07/13 05:49:33;;;;;;;6.13;3.17;;;17.00;93.60;;;;;;5053988;28;20013;-77
2021/07/13 05:51:58;;;;;;;6.97;3.20;;;17.00;93.70;;;;;;5053672;28;20519;-74
2021/07/13 05:54:24;;;;;;;5.72;3.45;;;17.00;93.70;;;;;;5053297;28;20021;-77
2021/07/13 05:56:50;;;;;;;7.55;3.50;;;17.00;93.70;;;;;;5053436;28;20431;-75
2021/07/13 05:59:15;;;;;;;8.35;3.80;;;17.00;93.50;;;;;;5053778;28;20531;-75
2021/07/13 06:01:41;;;;;;;6.68;3.70;;;17.00;93.70;;;;;;5053841;28;20031;-75
2021/07/13 06:04:06;;;;;;;5.63;3.53;;;17.10;93.70;;;;;;5053529;28;20106;-76
2021/07/13 06:06:32;;;;;;;6.07;3.30;;;17.10;93.50;;;;;;5053533;28;20083;-77
2021/07/13 06:08:58;;;;;;;10.07;3.72;;;17.20;93.40;;;;;;5053621;28;20392;-76
2021/07/13 06:11:23;;;;;;;6.13;3.80;;;17.10;93.50;;;;;;5053500;28;20103;-76
2021/07/13 06:13:49;;;;;;;5.80;3.85;;;17.10;93.50;;;;;;5053549;28;20086;-77
2021/07/13 06:16:15;;;;;;;8.18;3.53;;;17.20;93.30;;;;;;5053227;28;20025;-77
2021/07/13 06:18:40;;;;;;;5.60;3.45;;;17.30;93.00;;;;;;5053401;28;20021;-77
2021/07/13 06:21:08;;;;;;;7.07;3.60;;;17.30;92.90;;;;;;5038155;28;20021;-74
2021/07/13 06:23:35;;;;;;;4.80;3.30;;;17.30;93.00;;;;;;5033454;28;20022;-75
2021/07/13 06:26:00;;;;;;;6.15;3.78;;;17.20;93.00;;;;;;5033379;28;20128;-76
2021/07/13 06:28:26;;;;;;;6.60;4.13;;;17.20;93.50;;;;;;5033158;28;20100;-76
2021/07/13 06:30:52;;;;;;;9.43;3.75;;;17.20;93.00;;;;;;5033178;28;20397;-77
2021/07/13 06:33:17;;;;;;;4.97;3.47;;;17.20;92.90;;;;;;5033241;28;20560;-75
2021/07/13 06:35:45;;;;;;;7.60;3.60;;;17.20;93.10;;;;;;5033274;28;20017;-76
2021/07/13 06:38:11;;;;;;;7.43;4.05;;;17.20;93.10;;;;;;5033334;28;20048;-76
2021/07/13 06:40:37;;;;;;;5.43;3.50;;;17.20;92.90;;;;;;5032932;28;20069;-76
2021/07/13 06:43:02;;;;;;;5.63;3.72;;;17.30;92.80;;;;;;5032972;28;20443;-76
2021/07/13 06:45:28;;;;;;;7.32;3.60;;;17.30;92.60;;;;;;5033200;28;20033;-76
2021/07/13 06:47:54;;;;;;;6.93;3.45;;;17.40;92.70;;;;;;5033572;28;20025;-77
2021/07/13 06:50:24;;;;;;;5.80;3.38;;;17.30;92.30;;;;;;5033117;28;20501;-77
2021/07/13 06:52:51;;;;;;;6.90;3.37;;;17.20;92.50;;;;;;5033037;28;20079;-77
2021/07/13 06:55:16;;;;;;;8.35;3.63;;;17.30;92.50;;;;;;5032773;28;20025;-76
2021/07/13 06:57:42;;;;;;;7.15;3.55;;;17.40;92.10;;;;;;5033089;28;20501;-76
2021/07/13 07:00:09;;;;;;;5.03;3.15;;;17.40;92.00;;;;;;5033029;28;20496;-76
2021/07/13 07:02:35;;;;;;;7.65;3.35;;;17.50;92.00;;;;;;5032933;28;20026;-77
2021/07/13 07:05:01;;;;;;;5.30;3.60;;;17.60;91.90;;;;;;5033048;28;20100;-76
2021/07/13 07:07:27;;;;;;;7.40;3.60;;;17.60;91.70;;;;;;5035372;28;20493;-76
2021/07/13 07:09:53;;;;;;;7.65;3.60;;;17.60;91.70;;;;;;5037039;28;20032;-76
2021/07/13 07:12:19;;;;;;;9.35;4.53;;;17.60;91.60;;;;;;5036880;28;20406;-79
2021/07/13 07:14:44;;;;;;;6.50;3.58;;;17.60;91.60;;;;;;5048651;28;20397;-79
2021/07/13 07:17:10;;;;;;;6.53;3.35;;;17.60;91.50;;;;;;5056702;28;20100;-82
2021/07/13 07:19:35;;;;;;;5.63;3.50;;;17.70;91.50;;;;;;5053717;28;20890;-79
2021/07/13 07:22:01;;;;;;;6.80;3.72;;;17.90;91.40;;;;;;5036704;28;20505;-79
2021/07/13 07:24:27;;;;;;;7.68;3.97;;;17.90;91.10;;;;;;5052224;28;20032;-79
2021/07/13 07:26:53;;;;;;;6.43;3.35;;;17.80;91.00;;;;;;5044221;28;20045;-80
2021/07/13 07:29:18;;;;;;;6.28;3.60;;;18.00;90.90;;;;;;5036774;28;20117;-81
2021/07/13 07:31:44;;;;;;;6.05;3.83;;;18.10;90.60;;;;;;5045850;28;20033;-83
2021/07/13 07:34:10;;;;;;;7.93;3.92;;;18.10;90.80;;;;;;5055283;28;20436;-80
2021/07/13 07:36:35;;;;;;;8.82;3.63;;;17.90;90.90;;;;;;5056459;28;20021;-81
2021/07/13 07:39:01;;;;;;;7.70;3.60;;;17.90;90.90;;;;;;5055456;28;20035;-79
2021/07/13 07:41:27;;;;;;;7.15;4.75;;;17.80;90.90;;;;;;5056564;28;20021;-80
2021/07/13 07:43:53;;;;;;;8.45;3.70;;;17.80;90.90;;;;;;5055145;28;20067;-81
2021/07/13 07:46:18;;;;;;;5.90;3.70;;;17.80;90.60;;;;;;5056331;28;20079;-79
2021/07/13 07:48:44;;;;;;;7.22;3.75;;;17.90;90.50;;;;;;5055214;28;20055;-80
2021/07/13 07:51:10;;;;;;;7.20;3.53;;;17.90;90.70;;;;;;5056056;28;20028;-80
2021/07/13 07:53:35;;;;;;;7.57;3.35;;;17.90;90.60;;;;;;5055147;28;20033;-79
2021/07/13 07:56:01;;;;;;;5.38;3.20;;;17.80;90.60;;;;;;5037866;28;20112;-78
2021/07/13 07:58:27;;;;;;;5.70;3.25;;;17.80;90.70;;;;;;5055108;28;20021;-79
2021/07/13 08:00:54;;;;;;;5.60;3.30;;;17.80;90.80;;;;;;5056199;28;20025;-80
2021/07/13 08:03:20;;;;;;;5.43;3.10;;;17.80;90.80;;;;;;5052359;28;20453;-76
2021/07/13 08:05:45;;;;;;;6.82;3.10;;;17.80;91.20;;;;;;5055804;28;20053;-78
2021/07/13 08:08:11;;;;;;;7.25;3.92;;;17.90;90.70;;;;;;5037114;28;20029;-77
2021/07/13 08:10:37;;;;;;;6.72;3.30;;;17.80;90.80;;;;;;5055822;28;20029;-78
2021/07/13 08:13:04;;;;;;;6.30;3.22;;;17.80;90.80;;;;;;5054797;28;20017;-77
2021/07/13 08:15:30;;;;;;;6.95;3.95;;;17.80;91.00;;;;;;5055545;28;20515;-77
2021/07/13 08:17:56;;;;;;;8.73;3.75;;;17.80;91.10;;;;;;5053160;28;20060;-81
2021/07/13 08:20:22;;;;;;;6.00;3.28;;;17.80;91.20;;;;;;5054375;28;20075;-83
2021/07/13 08:22:49;;;;;;;10.05;3.67;;;17.80;91.40;;;;;;5054636;28;20445;-77
2021/07/13 08:25:17;;;;;;;4.80;3.20;;;17.90;91.30;;;;;;5048700;28;20080;-79
2021/07/13 08:27:44;;;;;;;5.57;3.10;;;18.10;91.00;;;;;;5074670;28;20023;-80
2021/07/13 08:30:10;;;;;;;6.88;3.47;;;18.10;90.50;;;;;;5075503;28;20449;-80
2021/07/13 08:32:36;;;;;;;8.27;3.60;;;18.40;90.40;;;;;;5069993;28;20025;-80
2021/07/13 08:35:03;;;;;;;8.85;3.33;;;18.40;90.00;;;;;;5075091;28;20535;-81
2021/07/13 08:37:32;;;;;;;4.93;3.13;;;18.40;90.10;;;;;;5061705;28;20576;-81
2021/07/13 08:39:58;;;;;;;5.93;3.13;;;18.50;88.90;;;;;;5067097;28;20029;-81
2021/07/13 08:42:25;;;;;;;7.70;3.08;;;18.50;89.90;;;;;;5073607;28;20029;-81
2021/07/13 08:44:50;;;;;;;5.95;3.50;;;18.60;88.60;;;;;;5066871;28;20069;-80
2021/07/13 08:47:17;;;;;;;6.35;3.20;;;18.60;89.40;;;;;;5055164;28;20444;-79
2021/07/13 08:49:48;;;;;;;4.63;3.20;;;18.60;89.40;;;;;;5060180;28;20424;-82
2021/07/13 08:52:14;;;;;;;7.72;3.35;;;18.80;88.50;;;;;;5072176;28;20084;-83
2021/07/13 08:54:40;;;;;;;5.70;3.50;;;18.70;87.80;;;;;;5069125;28;20139;-81
2021/07/13 08:57:08;;;;;;;8.45;3.13;;;18.80;87.90;;;;;;5071514;28;20028;-81
2021/07/13 08:59:34;;;;;;;6.00;3.53;;;19.00;87.80;;;;;;5074362;28;20569;-79
2021/07/13 09:02:00;;;;;;;6.07;3.38;;;19.10;87.30;;;;;;5075272;28;20104;-78
2021/07/13 09:04:33;;;;;;;5.88;3.40;;;19.00;86.00;;;;;;5074748;28;20126;-79
2021/07/13 09:06:59;;;;;;;7.43;3.15;;;18.90;86.20;;;;;;5052975;28;20025;-78
2021/07/13 09:09:33;;;;;;;4.63;2.80;;;18.90;86.50;;;;;;5078232;28;20028;-81
2021/07/13 09:12:12;;;;;;;6.78;3.25;;;18.90;86.40;;;;;;5074957;28;20027;-82
2021/07/13 09:15:01;;;;;;;3.78;2.92;;;19.00;86.20;;;;;;5074434;28;20120;-76
2021/07/13 09:17:47;;;;;;;5.53;3.13;;;19.10;85.60;;;;;;5073305;28;20350;-85
2021/07/13 09:20:24;;;;;;;7.57;3.50;;;19.40;84.60;;;;;;5066371;28;20039;-84
2021/07/13 09:23:00;;;;;;;3.13;2.40;;;19.90;83.70;;;;;;5070651;28;20067;-79
2021/07/13 09:25:34;;;;;;;5.85;4.05;;;20.10;82.10;;;;;;5065489;28;20045;-85
2021/07/13 09:28:11;;;;;;;7.88;3.30;;;20.10;83.30;;;;;;5054636;28;20052;-78
2021/07/13 09:30:39;;;;;;;5.85;3.22;;;20.10;82.60;;;;;;5054113;28;20033;-80
2021/07/13 09:33:16;;;;;;;4.70;2.97;;;19.90;81.90;;;;;;5036448;28;20057;-80
2021/07/13 09:36:12;;;;;;;6.00;3.40;;;19.90;81.10;;;;;;5045401;28;20099;-79
2021/07/13 09:38:44;;;;;;;8.13;3.65;;;20.20;80.40;;;;;;5034617;28;20091;-83
2021/07/13 09:41:14;;;;;;;6.47;3.72;;;20.30;80.10;;;;;;5033968;28;20051;-80
2021/07/13 09:43:41;;;;;;;6.35;3.42;;;20.10;81.20;;;;;;5054354;28;20032;-81
2021/07/13 09:46:22;;;;;;;5.32;3.35;;;19.90;81.00;;;;;;5053751;28;20040;-81
2021/07/13 09:49:17;;;;;;;6.35;3.30;;;20.00;81.10;;;;;;5052936;28;20021;-81
2021/07/13 09:51:55;;;;;;;4.55;3.35;;;20.10;80.90;;;;;;5034414;28;20039;-81
2021/07/13 09:54:38;;;;;;;6.85;3.53;;;20.20;81.10;;;;;;5049006;28;20025;-80
2021/07/13 09:57:16;;;;;;;5.32;3.40;;;20.30;80.50;;;;;;5051650;28;20060;-78
2021/07/13 09:59:43;;;;;;;6.40;3.90;;;20.40;79.90;;;;;;5050564;28;20028;-77
2021/07/13 10:02:10;;;;;;;5.00;3.67;;;20.50;80.30;;;;;;5051451;28;20048;-79
2021/07/13 10:04:36;;;;;;;5.32;3.78;;;20.40;80.00;;;;;;5044255;28;20028;-81
2021/07/13 10:07:13;;;;;;;5.82;3.47;;;20.40;80.30;;;;;;5051570;28;20021;-79
2021/07/13 10:09:54;;;;;;;5.45;3.58;;;20.30;81.50;;;;;;5052042;28;20025;-78
2021/07/13 10:12:22;;;;;;;4.85;3.55;;;20.30;81.00;;;;;;5033315;28;20394;-80
2021/07/13 10:14:54;;;;;;;5.00;3.13;;;20.60;80.10;;;;;;5033542;28;20476;-76
2021/07/13 10:17:20;;;;;;;6.78;3.90;;;20.70;79.30;;;;;;5051802;28;20318;-78
2021/07/13 10:20:05;;;;;;;6.60;3.70;;;20.80;79.60;;;;;;5047677;28;20476;-79
2021/07/13 10:22:34;;;;;;;7.53;4.10;;;20.70;79.70;;;;;;5032057;28;20025;-78
2021/07/13 10:25:01;;;;;;;5.88;3.35;;;20.70;80.10;;;;;;5036263;28;20576;-76
2021/07/13 10:27:31;;;;;;;6.63;3.70;;;20.80;80.40;;;;;;5049826;28;20032;-78
2021/07/13 10:30:00;;;;;;;6.72;3.83;;;20.80;80.00;;;;;;5051317;28;20025;-78
2021/07/13 10:32:25;;;;;;;6.38;3.83;;;20.80;80.20;;;;;;5051581;28;20028;-79
2021/07/13 10:35:04;;;;;;;6.15;3.58;;;20.60;80.60;;;;;;5051611;28;20478;-79
2021/07/13 10:37:42;;;;;;;7.15;3.50;;;22.60;75.60;;;;;;5051136;28;20104;-79
2021/07/13 10:40:09;;;;;;;5.68;3.33;;;24.20;66.30;;;;;;5051367;28;20017;-78
2021/07/13 10:42:41;;;;;;;6.03;3.47;;;24.10;64.70;;;;;;5051010;28;20029;-77
2021/07/13 10:45:28;;;;;;;3.65;3.00;;;24.50;62.30;;;;;;5051494;28;20090;-78
2021/07/13 10:48:13;;;;;;;5.13;3.05;;;24.60;62.70;;;;;;5050997;28;20100;-79
2021/07/13 10:50:43;;;;;;;5.65;3.63;;;24.20;61.80;;;;;;5051448;28;20079;-79
2021/07/13 10:53:39;;;;;;;8.73;3.33;;;23.50;68.00;;;;;;5051394;28;20033;-79
2021/07/13 10:56:08;;;;;;;5.18;3.45;;;23.20;70.10;;;;;;5050962;28;20026;-76
2021/07/13 10:58:49;;;;;;;5.72;3.58;;;23.00;70.20;;;;;;5051191;28;20057;-76
2021/07/13 11:01:25;;;;;;;5.50;3.47;;;23.10;70.80;;;;;;5051615;28;20029;-76
2021/07/13 11:04:08;;;;;;;5.18;3.40;;;23.00;69.60;;;;;;5051097;28;20057;-77
2021/07/13 11:06:39;;;;;;;6.75;3.55;;;22.80;72.10;;;;;;5050774;28;20024;-79
2021/07/13 11:09:34;;;;;;;5.30;3.35;;;22.30;72.50;;;;;;5050804;28;20559;-81
2021/07/13 11:12:06;;;;;;;5.82;3.70;;;22.30;73.90;;;;;;5051426;28;20026;-79
2021/07/13 11:14:31;;;;;;;7.38;3.88;;;22.40;73.70;;;;;;5051050;28;20040;-79
2021/07/13 11:16:57;;;;;;;5.85;3.60;;;22.40;73.00;;;;;;5050745;28;20025;-79
2021/07/13 11:19:23;;;;;;;7.15;4.00;;;22.40;74.20;;;;;;5051785;28;20523;-78
2021/07/13 11:21:52;;;;;;;6.78;3.55;;;22.60;73.80;;;;;;5071546;28;20023;-77
2021/07/13 11:24:23;;;;;;;7.45;4.20;;;22.40;74.00;;;;;;5071096;28;20029;-79
2021/07/13 11:26:51;;;;;;;7.10;4.18;;;22.00;75.20;;;;;;5070763;28;20127;-79
2021/07/13 11:29:18;;;;;;;7.70;4.25;;;21.90;76.00;;;;;;5070985;28;20031;-79
2021/07/13 11:31:51;;;;;;;7.60;4.63;;;21.90;76.50;;;;;;5070828;28;20150;-78
2021/07/13 11:34:21;;;;;;;7.68;5.07;;;21.90;75.70;;;;;;5071174;28;20017;-78
2021/07/13 11:36:49;;;;;;;7.22;4.20;;;21.70;76.20;;;;;;5070816;28;20070;-80
2021/07/13 11:39:30;;;;;;;6.78;4.15;;;21.60;77.50;;;;;;5070803;28;20508;-81
2021/07/13 11:42:02;;;;;;;6.80;4.78;;;21.50;78.00;;;;;;5071213;28;20028;-77
2021/07/13 11:44:27;;;;;;;5.68;4.20;;;21.60;78.20;;;;;;5070933;28;20100;-76
2021/07/13 11:46:54;;;;;;;6.53;4.45;;;22.00;77.10;;;;;;5070653;28;20544;-79
2021/07/13 11:49:24;;;;;;;6.97;4.65;;;22.10;75.90;;;;;;5070836;28;20422;-80
2021/07/13 11:51:50;;;;;;;6.85;4.70;;;22.00;75.40;;;;;;5070766;28;20271;-79
2021/07/13 11:54:21;;;;;;;6.65;4.18;;;21.90;75.50;;;;;;5074144;28;20017;-78
2021/07/13 11:56:52;;;;;;;6.13;3.88;;;22.00;76.50;;;;;;5074306;28;20063;-78
2021/07/13 11:59:21;;;;;;;7.20;4.32;;;22.40;75.40;;;;;;5074496;28;20476;-79
2021/07/13 12:01:57;;;;;;;7.10;4.65;;;22.70;75.30;;;;;;5074646;28;20025;-77
2021/07/13 12:04:25;;;;;;;5.97;4.15;;;23.00;72.80;;;;;;5073994;28;20388;-77
2021/07/13 12:07:01;;;;;;;5.93;4.30;;;22.80;71.80;;;;;;5073870;28;20021;-80
2021/07/13 12:09:29;;;;;;;5.97;3.72;;;22.40;72.80;;;;;;5074286;28;20019;-78
2021/07/13 12:12:04;;;;;;;5.57;3.53;;;22.00;74.80;;;;;;5074455;28;20025;-81
2021/07/13 12:14:29;;;;;;;6.82;4.30;;;21.70;77.20;;;;;;5073910;28;20085;-78
2021/07/13 12:16:57;;;;;;;5.80;3.90;;;21.50;78.20;;;;;;5073803;28;20442;-79
2021/07/13 12:19:24;;;;;;;11.55;5.47;;;21.60;77.60;;;;;;5071621;28;20051;-79
2021/07/13 12:21:54;;;;;;;10.05;4.68;;;21.80;77.80;;;;;;5054272;28;20028;-77
2021/07/13 12:24:24;;;;;;;;;;;22.20;77.10;;;;;;5054379;28;20017;-78
2021/07/13 12:26:55;;;;;;;5.22;3.78;;;22.10;75.70;;;;;;5052141;28;20281;-78
2021/07/13 12:29:33;;;;;;;7.10;3.97;;;21.80;76.90;;;;;;5053958;28;20013;-77
2021/07/13 12:32:01;;;;;;;4.93;3.53;;;21.80;77.50;;;;;;5053424;28;20040;-77
2021/07/13 12:34:31;;;;;;;6.88;4.20;;;21.80;77.50;;;;;;5053538;28;20060;-76
2021/07/13 12:37:07;;;;;;;;;;;22.00;76.90;;;;;;5053895;28;20021;-78
2021/07/13 12:39:33;;;;;;;5.55;3.72;;;22.10;76.20;;;;;;5053577;28;19905;-78
2021/07/13 12:42:10;;;;;;;5.93;3.95;;;22.00;75.60;;;;;;5053512;28;20056;-77
2021/07/13 12:44:41;;;;;;;6.03;4.00;;;21.90;76.40;;;;;;5053430;28;20108;-78
2021/07/13 12:47:23;;;;;;;7.88;4.35;;;21.80;77.00;;;;;;5053143;28;20489;-78
2021/07/13 12:49:59;;;;;;;8.95;4.50;;;21.70;77.60;;;;;;5053626;28;20021;-77
2021/07/13 12:52:37;;;;;;;6.22;4.28;;;21.70;77.30;;;;;;5052908;28;20029;-78
2021/07/13 12:55:24;;;;;;;7.97;4.57;;;21.90;75.80;;;;;;5052793;28;20021;-79
2021/07/13 12:57:50;;;;;;;5.90;4.50;;;22.00;75.10;;;;;;5053265;28;20063;-78